createdAt,value
2023-05-08T00:00:59.162Z,55.80
2023-05-08T00:03:26.931Z,54.60
2023-05-08T00:05:55.870Z,53.10
2023-05-08T00:08:23.777Z,53.20
2023-05-08T00:10:50.759Z,53.20
2023-05-08T00:13:17.790Z,54.30
2023-05-08T00:15:44.817Z,55.20
2023-05-08T00:18:11.881Z,54.40
2023-05-08T00:20:38.839Z,54.50
2023-05-08T00:23:05.784Z,55.50
2023-05-08T00:25:32.680Z,55.90
2023-05-08T00:28:00.413Z,56.80
2023-05-08T00:30:27.563Z,56.70
2023-05-08T00:32:54.641Z,55.50
2023-05-08T00:35:22.086Z,54.90
2023-05-08T00:37:48.965Z,55.30
2023-05-08T00:40:16.175Z,57.10
2023-05-08T00:42:43.161Z,57.30
2023-05-08T00:45:10.789Z,57.70
2023-05-08T00:47:37.895Z,57.90
2023-05-08T00:50:05.708Z,57.90
2023-05-08T00:52:33.905Z,58.80
2023-05-08T00:55:05.784Z,58.60
2023-05-08T00:57:35.787Z,59.20
2023-05-08T01:00:05.749Z,60.00
2023-05-08T01:02:33.082Z,61.00
2023-05-08T01:05:00.570Z,61.20
2023-05-08T01:07:28.212Z,61.30
2023-05-08T01:09:55.550Z,61.30
2023-05-08T01:12:56.044Z,61.90
2023-05-08T01:15:38.177Z,62.60
2023-05-08T01:18:13.593Z,62.60
2023-05-08T01:21:42.102Z,63.20
2023-05-08T01:24:47.597Z,62.70
2023-05-08T01:28:08.174Z,62.90
2023-05-08T01:31:16.816Z,64.70
2023-05-08T01:34:15.865Z,66.90
2023-05-08T01:37:02.447Z,66.60
2023-05-08T01:43:04.781Z,69.50
2023-05-08T01:45:39.596Z,70.60
2023-05-08T01:58:43.766Z,75.80
2023-05-08T02:01:15.957Z,76.50
2023-05-08T02:03:44.760Z,76.90
2023-05-08T02:06:14.285Z,79.20
2023-05-08T02:08:42.874Z,79.10
2023-05-08T02:11:12.679Z,79.00
2023-05-08T02:13:40.683Z,78.30
2023-05-08T02:16:10.256Z,78.70
2023-05-08T02:18:41.638Z,80.40
2023-05-08T02:21:09.526Z,80.90
2023-05-08T02:23:36.866Z,81.50
2023-05-08T02:26:05.233Z,81.90
2023-05-08T02:28:34.280Z,83.10
2023-05-08T02:31:01.815Z,84.50
2023-05-08T02:33:33.128Z,85.50
2023-05-08T02:36:02.143Z,85.70
2023-05-08T02:38:33.266Z,86.10
2023-05-08T02:41:05.546Z,86.30
2023-05-08T02:43:32.740Z,87.90
2023-05-08T02:46:37.370Z,87.90
2023-05-08T02:49:12.554Z,89.20
2023-05-08T02:52:11.423Z,90.00
2023-05-08T02:55:09.918Z,90.30
2023-05-08T02:58:23.543Z,91.50
2023-05-08T03:01:01.407Z,92.00
2023-05-08T03:03:38.261Z,92.80
2023-05-08T03:06:13.992Z,93.40
2023-05-08T03:08:45.823Z,93.70
2023-05-08T03:11:19.130Z,94.50
2023-05-08T03:13:47.100Z,95.00
2023-05-08T03:16:24.468Z,95.30
2023-05-08T03:18:57.961Z,95.40
2023-05-08T03:21:32.140Z,94.80
2023-05-08T03:24:04.834Z,95.10
2023-05-08T03:26:32.466Z,94.90
2023-05-08T03:29:02.908Z,95.00
2023-05-08T03:31:33.088Z,95.30
2023-05-08T03:34:02.558Z,95.70
2023-05-08T03:36:30.597Z,96.20
2023-05-08T03:39:00.342Z,96.70
2023-05-08T03:41:32.418Z,96.60
2023-05-08T03:43:59.682Z,97.40
2023-05-08T03:46:29.261Z,97.60
2023-05-08T03:48:57.224Z,98.10
2023-05-08T03:51:24.298Z,98.90
2023-05-08T03:53:51.180Z,99.30
2023-05-08T03:56:18.103Z,99.50
2023-05-08T03:58:51.157Z,99.90
2023-05-08T04:01:37.602Z,99.90
2023-05-08T04:04:09.951Z,99.90
2023-05-08T04:06:51.083Z,99.90
2023-05-08T04:09:24.845Z,99.90
2023-05-08T04:12:22.138Z,99.90
2023-05-08T04:14:56.406Z,99.90
2023-05-08T04:17:43.201Z,99.90
2023-05-08T04:20:14.905Z,99.90
2023-05-08T04:22:43.541Z,99.90
2023-05-08T04:25:12.792Z,99.90
2023-05-08T04:27:39.958Z,99.90
2023-05-08T04:30:09.430Z,99.90
2023-05-08T04:32:40.446Z,99.90
2023-05-08T04:35:08.785Z,99.90
2023-05-08T04:37:35.803Z,99.90
2023-05-08T04:40:04.050Z,99.90
2023-05-08T04:42:31.027Z,99.90
2023-05-08T04:44:58.019Z,99.90
2023-05-08T04:47:24.961Z,99.90
2023-05-08T04:49:51.908Z,99.90
2023-05-08T04:52:18.802Z,99.60
2023-05-08T04:54:47.110Z,98.10
2023-05-08T04:57:14.203Z,96.50
2023-05-08T04:59:41.085Z,94.40
2023-05-08T05:02:09.307Z,94.40
2023-05-08T05:04:36.899Z,84.00
2023-05-08T05:07:04.184Z,48.00
2023-05-08T05:09:31.194Z,37.80
2023-05-08T05:11:58.374Z,36.60
2023-05-08T05:14:25.414Z,27.90
2023-05-08T05:16:52.870Z,21.70
2023-05-08T05:19:19.835Z,15.60
2023-05-08T05:21:46.765Z,11.30
2023-05-08T05:24:13.693Z,4.90
2023-05-08T05:26:41.227Z,5.40
2023-05-08T05:29:08.247Z,7.50
2023-05-08T05:31:35.348Z,16.40
2023-05-08T05:34:02.297Z,22.60
2023-05-08T05:36:29.508Z,25.40
2023-05-08T05:38:56.362Z,29.50
2023-05-08T05:41:23.313Z,33.20
2023-05-08T05:43:50.198Z,34.50
2023-05-08T05:46:18.050Z,34.60
2023-05-08T05:48:44.979Z,34.70
2023-05-08T05:51:12.294Z,36.20
2023-05-08T05:53:39.176Z,37.80
2023-05-08T05:56:06.793Z,36.30
2023-05-08T05:58:35.558Z,35.80
2023-05-08T06:01:02.491Z,40.70
2023-05-08T06:03:29.535Z,43.60
2023-05-08T06:05:56.794Z,44.30
2023-05-08T06:08:23.687Z,37.20
2023-05-08T06:10:50.648Z,37.30
2023-05-08T06:13:17.676Z,38.70
2023-05-08T06:15:44.620Z,39.60
2023-05-08T06:18:11.606Z,41.00
2023-05-08T06:20:39.000Z,44.80
2023-05-08T06:23:06.168Z,47.50
2023-05-08T06:25:33.213Z,45.90
2023-05-08T06:28:00.190Z,46.20
2023-05-08T06:30:27.208Z,45.00
2023-05-08T06:32:54.298Z,47.00
2023-05-08T06:35:21.259Z,47.20
2023-05-08T06:37:48.108Z,44.10
2023-05-08T06:40:15.157Z,43.40
2023-05-08T06:42:42.155Z,44.30
2023-05-08T06:45:09.738Z,46.20
2023-05-08T06:47:36.911Z,45.10
2023-05-08T06:50:04.510Z,44.20
2023-05-08T06:52:31.463Z,44.30
2023-05-08T06:54:58.454Z,43.60
2023-05-08T06:57:27.327Z,43.50
2023-05-08T06:59:54.335Z,43.10
2023-05-08T07:02:21.309Z,44.40
2023-05-08T07:04:48.264Z,44.00
2023-05-08T07:07:15.449Z,45.90
2023-05-08T07:09:42.391Z,43.10
2023-05-08T07:12:09.575Z,43.70
2023-05-08T07:14:36.926Z,43.90
2023-05-08T07:17:08.071Z,44.80
2023-05-08T07:19:38.709Z,46.50
2023-05-08T07:22:06.511Z,47.60
2023-05-08T07:24:33.561Z,47.30
2023-05-08T07:27:01.350Z,49.30
2023-05-08T07:29:28.310Z,48.50
2023-05-08T07:31:55.362Z,49.80
2023-05-08T07:34:22.312Z,55.00
2023-05-08T07:36:49.468Z,57.60
2023-05-08T07:39:16.568Z,58.10
2023-05-08T07:41:43.554Z,59.00
2023-05-08T07:44:10.530Z,56.70
2023-05-08T07:46:37.676Z,56.10
2023-05-08T07:49:04.602Z,53.40
2023-05-08T07:51:32.468Z,51.50
2023-05-08T07:53:59.371Z,51.50
2023-05-08T07:56:27.358Z,50.60
2023-05-08T07:58:54.461Z,51.10
2023-05-08T08:01:21.408Z,53.10
2023-05-08T08:03:48.543Z,51.30
2023-05-08T08:06:15.691Z,50.50
2023-05-08T08:08:42.622Z,51.10
2023-05-08T08:11:09.936Z,48.80
2023-05-08T08:13:36.795Z,46.10
2023-05-08T08:16:06.736Z,45.00
2023-05-08T08:18:37.037Z,44.30
2023-05-08T08:21:07.636Z,41.40
2023-05-08T08:23:34.999Z,36.90
2023-05-08T08:26:01.975Z,32.10
2023-05-08T08:28:28.906Z,29.20
2023-05-08T08:30:55.880Z,27.10
2023-05-08T08:33:22.919Z,23.20
2023-05-08T08:35:49.831Z,21.20
2023-05-08T08:38:17.006Z,21.50
2023-05-08T08:40:43.896Z,18.50
2023-05-08T08:43:10.905Z,15.00
2023-05-08T08:45:38.688Z,14.50
2023-05-08T08:48:08.755Z,13.70
2023-05-08T08:50:36.502Z,15.50
2023-05-08T08:53:31.030Z,16.40
2023-05-08T08:56:00.956Z,14.20
2023-05-08T08:58:33.939Z,14.50
2023-05-08T09:01:04.070Z,17.20
2023-05-08T09:03:32.095Z,16.80
2023-05-08T09:06:02.782Z,15.40
2023-05-08T09:08:30.039Z,14.10
2023-05-08T09:10:57.039Z,16.20
2023-05-08T09:13:24.056Z,14.70
2023-05-08T09:15:51.225Z,15.30
2023-05-08T09:18:19.337Z,12.40
2023-05-08T09:20:46.769Z,10.60
2023-05-08T09:23:17.364Z,6.70
2023-05-08T09:25:45.424Z,8.60
2023-05-08T09:28:17.863Z,4.20
2023-05-08T09:30:56.785Z,5.50
2023-05-08T09:33:25.765Z,6.70
2023-05-08T09:35:52.778Z,7.00
2023-05-08T09:38:40.360Z,6.00
2023-05-08T09:41:12.578Z,2.40
2023-05-08T09:43:39.661Z,1.20
2023-05-08T09:46:27.010Z,1.00
2023-05-08T09:48:58.834Z,1.00
2023-05-08T09:51:27.526Z,1.00
2023-05-08T09:53:55.965Z,1.00
2023-05-08T09:56:37.044Z,1.00
2023-05-08T09:59:06.509Z,1.00
2023-05-08T10:01:37.333Z,1.00
2023-05-08T10:04:06.134Z,1.00
2023-05-08T10:06:33.479Z,1.00
2023-05-08T10:09:14.590Z,1.00
2023-05-08T10:11:52.053Z,1.00
2023-05-08T10:14:20.113Z,1.00
2023-05-08T10:16:52.891Z,1.00
2023-05-08T10:19:25.266Z,1.00
2023-05-08T10:21:54.988Z,1.00
2023-05-08T10:24:33.642Z,1.00
2023-05-08T10:27:24.613Z,1.00
2023-05-08T10:29:54.468Z,1.00
2023-05-08T10:32:23.393Z,1.00
2023-05-08T10:34:53.754Z,1.00
2023-05-08T10:37:20.908Z,1.00
2023-05-08T10:39:49.207Z,1.00
2023-05-08T10:42:16.411Z,1.00
2023-05-08T10:44:43.789Z,1.00
2023-05-08T10:47:27.935Z,1.00
2023-05-08T10:50:19.677Z,1.00
2023-05-08T10:53:19.038Z,1.00
2023-05-08T10:55:50.383Z,1.00
2023-05-08T10:58:34.593Z,1.00
2023-05-08T11:01:21.769Z,1.00
2023-05-08T11:03:52.560Z,1.00
2023-05-08T11:06:52.843Z,1.00
2023-05-08T11:09:27.070Z,1.00
2023-05-08T11:12:07.216Z,1.00
2023-05-08T11:14:36.831Z,1.00
2023-05-08T11:17:04.771Z,1.00
2023-05-08T11:19:32.045Z,1.00
2023-05-08T11:22:33.091Z,1.00
2023-05-08T11:25:05.746Z,1.00
2023-05-08T11:27:58.552Z,1.00
2023-05-08T11:30:36.530Z,1.00
2023-05-08T11:33:13.718Z,1.00
2023-05-08T11:35:58.188Z,1.00
2023-05-08T11:38:36.676Z,1.00
2023-05-08T11:41:24.165Z,1.00
2023-05-08T11:44:15.020Z,1.00
2023-05-08T11:46:48.975Z,1.00
2023-05-08T11:49:17.277Z,1.00
2023-05-08T11:51:58.141Z,1.00
2023-05-08T11:54:26.014Z,1.00
2023-05-08T11:56:57.144Z,1.00
2023-05-08T11:59:24.119Z,1.00
2023-05-08T12:04:22.967Z,1.00
2023-05-08T12:06:51.563Z,1.00
2023-05-08T12:09:20.496Z,1.00
2023-05-08T12:11:47.618Z,1.00
2023-05-08T12:14:18.043Z,1.00
2023-05-08T12:16:44.965Z,1.00
2023-05-08T12:19:13.367Z,1.00
2023-05-08T12:21:48.824Z,6.40
2023-05-08T12:24:23.569Z,11.10
2023-05-08T12:26:54.677Z,18.20
2023-05-08T12:29:21.992Z,35.90
2023-05-08T12:31:49.631Z,47.40
2023-05-08T12:34:16.576Z,60.10
2023-05-08T12:36:43.506Z,71.20
2023-05-08T12:39:17.600Z,75.90
2023-05-08T12:41:52.528Z,89.80
2023-05-08T12:44:26.383Z,92.50
2023-05-08T12:46:55.484Z,95.80
2023-05-08T12:49:30.312Z,95.60
2023-05-08T12:52:05.399Z,93.60
2023-05-08T12:54:39.214Z,95.50
2023-05-08T12:57:13.086Z,93.10
2023-05-08T12:59:41.235Z,94.50
2023-05-08T13:02:18.384Z,90.90
2023-05-08T13:04:45.911Z,88.10
2023-05-08T13:07:13.048Z,81.80
2023-05-08T13:09:40.555Z,71.70
2023-05-08T13:12:07.875Z,57.80
2023-05-08T13:14:34.779Z,59.90
2023-05-08T13:17:02.067Z,53.80
2023-05-08T13:19:29.111Z,53.00
2023-05-08T13:21:56.042Z,41.70
2023-05-08T13:24:23.045Z,44.90
2023-05-08T13:26:49.962Z,40.50
2023-05-08T13:29:17.358Z,44.30
2023-05-08T13:31:44.287Z,36.50
2023-05-08T13:34:11.324Z,30.60
2023-05-08T13:36:38.210Z,28.90
2023-05-08T13:39:05.691Z,27.20
2023-05-08T13:41:32.553Z,18.80
2023-05-08T13:43:59.398Z,15.10
2023-05-08T13:46:26.524Z,17.40
2023-05-08T13:48:53.506Z,15.30
2023-05-08T13:51:20.445Z,18.50
2023-05-08T13:53:47.385Z,11.80
2023-05-08T13:56:14.348Z,17.80
2023-05-08T13:58:41.325Z,19.50
2023-05-08T14:01:25.092Z,20.60
2023-05-08T14:03:53.225Z,20.50
2023-05-08T14:06:21.189Z,20.80
2023-05-08T14:08:50.946Z,21.60
2023-05-08T14:11:18.571Z,21.50
2023-05-08T14:13:45.463Z,23.90
2023-05-08T14:16:14.406Z,23.10
2023-05-08T14:18:41.412Z,22.00
2023-05-08T14:21:08.297Z,17.10
2023-05-08T14:23:36.022Z,14.40
2023-05-08T14:26:03.100Z,11.80
2023-05-08T14:28:30.156Z,10.50
2023-05-08T14:30:57.076Z,13.80
2023-05-08T14:33:24.095Z,17.10
2023-05-08T14:35:50.982Z,18.10
2023-05-08T14:38:17.922Z,24.60
2023-05-08T14:40:44.892Z,32.00
2023-05-08T14:43:11.768Z,10.40
2023-05-08T14:45:38.663Z,5.60
2023-05-08T14:48:06.406Z,8.00
2023-05-08T14:50:33.308Z,10.60
2023-05-08T14:53:00.405Z,7.50
2023-05-08T14:55:27.568Z,10.10
2023-05-08T14:57:54.533Z,8.50
2023-05-08T15:00:21.572Z,7.90
2023-05-08T15:02:48.932Z,4.30
2023-05-08T15:05:19.997Z,9.00
2023-05-08T15:07:49.592Z,12.80
2023-05-08T15:10:16.603Z,14.10
2023-05-08T15:12:43.518Z,11.90
2023-05-08T15:15:10.829Z,10.40
2023-05-08T15:17:37.783Z,13.30
2023-05-08T15:20:06.375Z,14.20
2023-05-08T15:22:33.312Z,14.60
2023-05-08T15:25:02.525Z,12.90
2023-05-08T15:27:29.993Z,12.00
2023-05-08T15:29:57.338Z,13.30
2023-05-08T15:32:24.748Z,15.00
2023-05-08T15:34:51.651Z,9.00
2023-05-08T15:37:18.697Z,11.70
2023-05-08T15:39:45.576Z,14.10
2023-05-08T15:42:12.493Z,15.00
2023-05-08T15:44:54.544Z,16.80
2023-05-08T15:47:23.360Z,16.80
2023-05-08T15:49:51.306Z,17.10
2023-05-08T15:52:19.775Z,16.60
2023-05-08T15:54:47.778Z,16.80
2023-05-08T15:57:14.921Z,18.00
2023-05-08T15:59:41.845Z,16.00
2023-05-08T16:02:09.270Z,18.20
2023-05-08T16:04:36.461Z,22.20
2023-05-08T16:07:03.526Z,19.40
2023-05-08T16:09:30.361Z,20.60
2023-05-08T16:11:57.292Z,19.50
2023-05-08T16:14:24.178Z,19.50
2023-05-08T16:16:51.049Z,20.10
2023-05-08T16:19:18.000Z,23.10
2023-05-08T16:21:48.032Z,25.00
2023-05-08T16:24:14.975Z,27.50
2023-05-08T16:26:41.870Z,27.50
2023-05-08T16:29:08.881Z,27.80
2023-05-08T16:31:35.868Z,30.20
2023-05-08T16:34:02.879Z,28.50
2023-05-08T16:36:29.965Z,28.10
2023-05-08T16:38:56.885Z,30.00
2023-05-08T16:41:23.911Z,32.20
2023-05-08T16:43:50.858Z,32.00
2023-05-08T16:46:29.149Z,33.90
2023-05-08T16:48:56.685Z,35.60
2023-05-08T16:51:23.608Z,37.40
2023-05-08T16:53:50.580Z,37.30
2023-05-08T16:56:17.467Z,39.50
2023-05-08T16:58:44.384Z,41.60
2023-05-08T17:01:12.288Z,39.00
2023-05-08T17:03:39.255Z,40.60
2023-05-08T17:06:07.685Z,42.70
2023-05-08T17:08:34.768Z,39.40
2023-05-08T17:11:01.648Z,40.40
2023-05-08T17:13:28.628Z,41.30
2023-05-08T17:15:55.620Z,37.20
2023-05-08T17:18:22.634Z,39.30
2023-05-08T17:20:50.252Z,39.40
2023-05-08T17:23:17.204Z,37.90
2023-05-08T17:25:44.123Z,39.20
2023-05-08T17:28:11.171Z,38.70
2023-05-08T17:30:38.341Z,37.70
2023-05-08T17:33:05.414Z,35.90
2023-05-08T17:35:32.443Z,39.40
2023-05-08T17:37:59.363Z,39.90
2023-05-08T17:40:30.659Z,41.50
2023-05-08T17:42:59.925Z,42.90
2023-05-08T17:45:27.253Z,41.60
2023-05-08T17:47:54.368Z,42.80
2023-05-08T17:50:21.519Z,43.60
2023-05-08T17:52:48.387Z,43.50
2023-05-08T17:55:15.297Z,45.20
2023-05-08T17:57:42.299Z,47.00
2023-05-08T18:00:09.986Z,47.40
2023-05-08T18:02:36.938Z,45.70
2023-05-08T18:05:04.137Z,47.30
2023-05-08T18:07:31.297Z,46.90
2023-05-08T18:09:58.943Z,47.70
2023-05-08T18:12:25.855Z,50.00
2023-05-08T18:14:52.697Z,52.20
2023-05-08T18:17:20.702Z,53.90
2023-05-08T18:19:47.597Z,54.80
2023-05-08T18:22:14.512Z,57.50
2023-05-08T18:24:41.382Z,60.50
2023-05-08T18:27:08.355Z,61.70
2023-05-08T18:29:35.418Z,62.80
2023-05-08T18:32:02.383Z,63.60
2023-05-08T18:34:29.290Z,66.00
2023-05-08T18:36:58.050Z,69.30
2023-05-08T18:39:25.213Z,70.90
2023-05-08T18:41:52.172Z,70.70
2023-05-08T18:44:19.066Z,72.90
2023-05-08T18:46:46.085Z,75.50
2023-05-08T18:49:13.027Z,77.70
2023-05-08T18:51:39.929Z,81.80
2023-05-08T18:54:06.793Z,81.90
2023-05-08T18:56:34.389Z,83.10
2023-05-08T18:59:01.576Z,87.80
2023-05-08T19:01:28.545Z,86.80
2023-05-08T19:03:55.633Z,89.80
2023-05-08T19:06:22.757Z,90.60
2023-05-08T19:08:49.684Z,92.30
2023-05-08T19:11:17.038Z,93.00
2023-05-08T19:13:43.972Z,94.40
2023-05-08T19:16:10.971Z,94.10
2023-05-08T19:18:37.905Z,95.30
2023-05-08T19:21:04.927Z,96.30
2023-05-08T19:23:31.771Z,97.00
2023-05-08T19:25:58.696Z,98.90
2023-05-08T19:28:25.714Z,99.90
2023-05-08T19:30:52.627Z,99.90
2023-05-08T19:33:22.328Z,99.90
2023-05-08T19:35:49.355Z,99.90
2023-05-08T19:38:16.459Z,99.90
2023-05-08T19:40:55.694Z,99.90
2023-05-08T19:43:23.922Z,99.90
2023-05-08T19:45:50.867Z,99.90
2023-05-08T19:48:19.671Z,99.90
2023-05-08T19:50:46.553Z,99.90
2023-05-08T19:53:13.732Z,99.90
2023-05-08T19:55:40.617Z,99.90
2023-05-08T19:58:07.545Z,99.90
2023-05-08T20:00:34.658Z,99.90
2023-05-08T20:03:01.759Z,99.90
2023-05-08T20:05:28.811Z,99.90
2023-05-08T20:07:55.747Z,99.90
2023-05-08T20:10:22.933Z,99.90
2023-05-08T20:12:49.856Z,99.90
2023-05-08T20:15:16.859Z,99.90
2023-05-08T20:17:43.814Z,99.90
2023-05-08T20:20:11.878Z,99.90
2023-05-08T20:22:38.940Z,99.90
2023-05-08T20:25:06.765Z,99.90
2023-05-08T20:27:33.707Z,99.90
2023-05-08T20:30:00.688Z,99.90
2023-05-08T20:32:27.555Z,99.90
2023-05-08T20:34:54.524Z,99.90
2023-05-08T20:37:21.437Z,99.90
2023-05-08T20:39:48.274Z,99.90
2023-05-08T20:42:15.108Z,99.90
2023-05-08T20:44:42.005Z,99.90
2023-05-08T20:47:08.943Z,99.90
2023-05-08T20:49:35.863Z,99.90
2023-05-08T20:52:02.795Z,99.90
2023-05-08T20:54:30.464Z,99.90
2023-05-08T20:56:57.445Z,99.90
2023-05-08T20:59:24.426Z,99.90
2023-05-08T21:01:51.424Z,99.90
2023-05-08T21:04:18.390Z,99.90
2023-05-08T21:06:45.315Z,99.90
2023-05-08T21:09:12.217Z,99.90
2023-05-08T21:11:39.170Z,99.90
2023-05-08T21:14:06.149Z,99.90
2023-05-08T21:16:33.150Z,99.90
2023-05-08T21:19:00.118Z,99.90
2023-05-08T21:21:27.156Z,99.90
2023-05-08T21:23:54.040Z,99.90
2023-05-08T21:26:23.613Z,99.90
2023-05-08T21:28:52.592Z,99.90
2023-05-08T21:31:20.080Z,99.90
2023-05-08T21:33:47.106Z,99.90
2023-05-08T21:36:14.115Z,99.90
2023-05-08T21:38:41.780Z,99.90
2023-05-08T21:41:08.852Z,99.90
2023-05-08T21:43:36.269Z,99.90
2023-05-08T21:46:07.340Z,99.90
2023-05-08T21:48:34.654Z,99.90
2023-05-08T21:51:02.105Z,99.90
2023-05-08T21:53:29.188Z,99.90
2023-05-08T21:55:56.340Z,99.90
2023-05-08T21:58:23.360Z,99.90
2023-05-08T22:00:50.253Z,99.90
2023-05-08T22:03:17.527Z,99.90
2023-05-08T22:05:44.497Z,99.90
2023-05-08T22:08:11.416Z,99.90
2023-05-08T22:10:38.390Z,99.90
2023-05-08T22:13:06.584Z,99.90
2023-05-08T22:15:33.741Z,99.90
2023-05-08T22:18:02.823Z,99.90
2023-05-08T22:20:30.184Z,99.90
2023-05-08T22:22:57.117Z,99.90
2023-05-08T22:25:25.281Z,99.90
2023-05-08T22:27:52.512Z,99.90
2023-05-08T22:30:19.466Z,99.90
2023-05-08T22:32:57.284Z,99.90
2023-05-08T22:35:25.998Z,99.90
2023-05-08T22:37:53.788Z,99.90
2023-05-08T22:40:21.994Z,99.90
2023-05-08T22:42:51.330Z,99.90
2023-05-08T22:45:18.382Z,99.90
2023-05-08T22:47:45.638Z,99.90
2023-05-08T22:50:12.553Z,99.90
2023-05-08T22:52:40.146Z,99.90
2023-05-08T22:55:07.939Z,99.90
2023-05-08T22:57:34.903Z,99.90
2023-05-08T23:00:01.879Z,99.90
2023-05-08T23:02:33.494Z,99.90
2023-05-08T23:05:00.751Z,99.90
2023-05-08T23:07:28.714Z,99.90
2023-05-08T23:09:55.616Z,99.90
2023-05-08T23:12:22.480Z,99.90
2023-05-08T23:14:49.426Z,99.90
2023-05-08T23:17:16.338Z,99.90
2023-05-08T23:19:43.578Z,99.90
2023-05-08T23:22:10.528Z,99.90
2023-05-08T23:24:37.413Z,99.90
2023-05-08T23:27:04.388Z,99.90
2023-05-08T23:29:31.264Z,99.90
2023-05-08T23:31:58.160Z,99.90
2023-05-08T23:34:25.122Z,99.90
2023-05-08T23:36:52.044Z,99.90
2023-05-08T23:39:18.966Z,99.90
2023-05-08T23:41:45.888Z,99.90
2023-05-08T23:44:12.763Z,99.90
2023-05-08T23:46:39.747Z,99.90
2023-05-08T23:49:07.365Z,99.90
2023-05-08T23:51:34.277Z,99.90
2023-05-08T23:54:01.438Z,99.90
2023-05-08T23:56:29.550Z,99.90
2023-05-08T23:58:56.647Z,99.90
